createdAt,value
2022-11-10T00:02:51.297Z,31.80
2022-11-10T00:05:38.834Z,31.07
2022-11-10T00:08:24.310Z,29.80
2022-11-10T00:11:09.800Z,29.67
2022-11-10T00:14:14.036Z,29.67
2022-11-10T00:17:02.142Z,29.73
2022-11-10T00:19:47.725Z,29.03
2022-11-10T00:22:34.534Z,29.23
2022-11-10T00:25:20.561Z,28.70
2022-11-10T00:28:06.350Z,29.30
2022-11-10T00:30:52.186Z,28.13
2022-11-10T00:33:39.409Z,27.27
2022-11-10T00:36:25.617Z,28.27
2022-11-10T00:39:11.814Z,28.57
2022-11-10T00:41:58.048Z,28.43
2022-11-10T00:44:45.062Z,27.77
2022-11-10T00:47:30.881Z,28.13
2022-11-10T00:50:16.794Z,27.10
2022-11-10T00:53:02.530Z,26.53
2022-11-10T00:55:49.078Z,25.90
2022-11-10T00:58:34.924Z,27.00
2022-11-10T01:01:24.400Z,27.13
2022-11-10T01:04:10.659Z,25.40
2022-11-10T01:06:56.342Z,27.73
2022-11-10T01:09:42.236Z,28.33
2022-11-10T01:12:31.276Z,26.33
2022-11-10T01:15:16.799Z,25.97
2022-11-10T01:18:02.468Z,27.20
2022-11-10T01:20:52.555Z,25.87
2022-11-10T01:23:38.600Z,26.63
2022-11-10T01:26:24.684Z,26.10
2022-11-10T01:29:10.383Z,26.67
2022-11-10T01:31:55.870Z,27.60
2022-11-10T01:34:41.517Z,26.40
2022-11-10T01:37:27.449Z,26.70
2022-11-10T01:40:13.882Z,27.27
2022-11-10T01:43:00.323Z,27.03
2022-11-10T01:45:55.785Z,26.00
2022-11-10T01:48:47.841Z,26.60
2022-11-10T01:51:49.177Z,25.70
2022-11-10T01:54:39.397Z,26.17
2022-11-10T01:57:25.310Z,27.77
2022-11-10T02:00:11.687Z,25.10
2022-11-10T02:03:38.567Z,27.30
2022-11-10T02:06:29.419Z,24.03
2022-11-10T02:09:16.036Z,24.27
2022-11-10T02:12:01.995Z,24.63
2022-11-10T02:14:47.541Z,24.13
2022-11-10T02:17:33.665Z,23.63
2022-11-10T02:20:21.034Z,24.77
2022-11-10T02:23:35.867Z,24.53
2022-11-10T02:26:27.904Z,23.33
2022-11-10T02:29:15.370Z,24.40
2022-11-10T02:32:00.962Z,22.80
2022-11-10T02:34:46.460Z,23.33
2022-11-10T02:37:32.528Z,23.83
2022-11-10T02:40:18.360Z,23.60
2022-11-10T02:43:06.385Z,21.40
2022-11-10T02:45:51.989Z,22.67
2022-11-10T02:48:37.389Z,22.70
2022-11-10T02:51:23.099Z,21.77
2022-11-10T02:54:08.570Z,21.83
2022-11-10T02:56:54.592Z,21.03
2022-11-10T02:59:39.993Z,21.37
2022-11-10T03:02:29.779Z,21.37
2022-11-10T03:05:17.517Z,21.77
2022-11-10T03:08:04.280Z,22.10
2022-11-10T03:10:54.679Z,21.40
2022-11-10T03:14:00.472Z,21.43
2022-11-10T03:16:46.148Z,20.23
2022-11-10T03:19:31.695Z,21.60
2022-11-10T03:22:17.385Z,19.77
2022-11-10T03:25:03.230Z,20.27
2022-11-10T03:27:48.559Z,20.33
2022-11-10T03:30:34.348Z,20.23
2022-11-10T03:33:20.137Z,19.93
2022-11-10T03:36:06.598Z,20.33
2022-11-10T03:38:51.778Z,19.20
2022-11-10T03:41:37.927Z,20.10
2022-11-10T03:44:23.415Z,18.80
2022-11-10T03:47:09.096Z,18.27
2022-11-10T03:49:54.689Z,18.33
2022-11-10T03:52:42.066Z,17.90
2022-11-10T03:55:27.557Z,18.87
2022-11-10T03:58:13.337Z,19.20
2022-11-10T04:01:00.749Z,17.80
2022-11-10T04:03:51.216Z,18.23
2022-11-10T04:06:55.615Z,19.60
2022-11-10T04:09:41.509Z,18.50
2022-11-10T04:13:05.709Z,20.13
2022-11-10T04:15:51.994Z,19.13
2022-11-10T04:18:37.648Z,19.50
2022-11-10T04:21:23.407Z,19.37
2022-11-10T04:24:09.106Z,18.83
2022-11-10T04:26:54.828Z,17.93
2022-11-10T04:29:40.053Z,17.93
2022-11-10T04:32:25.917Z,18.87
2022-11-10T04:35:11.116Z,18.30
2022-11-10T04:37:56.722Z,19.23
2022-11-10T04:40:42.013Z,19.07
2022-11-10T04:43:28.449Z,17.97
2022-11-10T04:46:20.364Z,19.07
2022-11-10T04:49:06.937Z,17.93
2022-11-10T04:51:52.543Z,19.30
2022-11-10T04:54:38.176Z,18.77
2022-11-10T04:57:23.773Z,18.57
2022-11-10T05:00:10.615Z,18.70
2022-11-10T05:02:59.729Z,18.30
2022-11-10T05:05:45.773Z,19.43
2022-11-10T05:08:31.588Z,19.50
2022-11-10T05:11:17.364Z,18.70
2022-11-10T05:14:03.107Z,18.03
2022-11-10T05:16:49.020Z,18.03
2022-11-10T05:19:34.312Z,18.03
2022-11-10T05:22:20.297Z,17.93
2022-11-10T05:25:06.297Z,16.77
2022-11-10T05:27:51.857Z,17.10
2022-11-10T05:30:38.697Z,17.07
2022-11-10T05:33:24.590Z,17.20
2022-11-10T05:36:10.653Z,16.27
2022-11-10T05:38:56.030Z,15.77
2022-11-10T05:41:42.026Z,15.43
2022-11-10T05:44:27.689Z,15.60
2022-11-10T05:47:12.862Z,14.57
2022-11-10T05:49:58.315Z,15.90
2022-11-10T05:52:50.226Z,16.53
2022-11-10T05:55:36.680Z,15.80
2022-11-10T05:58:22.155Z,15.20
2022-11-10T06:01:07.894Z,14.13
2022-11-10T06:03:53.449Z,14.90
2022-11-10T06:06:39.556Z,14.40
2022-11-10T06:09:24.932Z,13.17
2022-11-10T06:12:10.753Z,14.00
2022-11-10T06:15:00.516Z,13.53
2022-11-10T06:17:46.146Z,13.80
2022-11-10T06:20:31.503Z,14.30
2022-11-10T06:23:17.168Z,13.00
2022-11-10T06:26:02.746Z,14.67
2022-11-10T06:28:48.756Z,13.50
2022-11-10T06:31:34.187Z,13.17
2022-11-10T06:34:19.557Z,12.80
2022-11-10T06:37:05.032Z,12.03
2022-11-10T06:39:50.490Z,12.47
2022-11-10T06:42:36.158Z,14.83
2022-11-10T06:45:22.728Z,13.40
2022-11-10T06:48:14.970Z,12.03
2022-11-10T06:51:01.409Z,12.17
2022-11-10T06:53:47.546Z,12.47
2022-11-10T06:56:33.387Z,11.27
2022-11-10T06:59:18.968Z,12.00
2022-11-10T07:02:04.522Z,12.43
2022-11-10T07:04:50.805Z,10.90
2022-11-10T07:07:36.646Z,10.33
2022-11-10T07:10:22.017Z,11.33
2022-11-10T07:13:07.946Z,10.43
2022-11-10T07:15:53.589Z,11.80
2022-11-10T07:18:39.034Z,10.53
2022-11-10T07:21:24.566Z,11.03
2022-11-10T07:24:09.991Z,10.67
2022-11-10T07:26:55.557Z,10.00
2022-11-10T07:29:41.176Z,9.93
2022-11-10T07:32:26.648Z,10.17
2022-11-10T07:35:12.413Z,9.13
2022-11-10T07:38:01.347Z,10.67
2022-11-10T07:40:51.665Z,9.23
2022-11-10T07:43:37.037Z,9.40
2022-11-10T07:46:22.773Z,9.60
2022-11-10T07:49:08.571Z,9.10
2022-11-10T07:51:54.386Z,10.03
2022-11-10T07:54:40.071Z,8.13
2022-11-10T07:57:26.080Z,8.07
2022-11-10T08:00:12.962Z,8.00
2022-11-10T08:03:06.204Z,8.53
2022-11-10T08:05:52.118Z,7.40
2022-11-10T08:08:38.153Z,7.93
2022-11-10T08:11:23.720Z,7.50
2022-11-10T08:14:09.817Z,6.33
2022-11-10T08:16:55.273Z,5.83
2022-11-10T08:19:40.901Z,5.60
2022-11-10T08:22:26.438Z,5.45
2022-11-10T08:25:12.435Z,5.63
2022-11-10T08:27:59.441Z,5.43
2022-11-10T08:30:46.543Z,5.55
2022-11-10T08:33:32.040Z,5.75
2022-11-10T08:36:17.350Z,6.10
2022-11-10T08:39:02.842Z,5.47
2022-11-10T08:41:48.446Z,4.72
2022-11-10T08:44:33.977Z,4.93
2022-11-10T08:47:19.631Z,4.60
2022-11-10T08:50:06.287Z,4.60
2022-11-10T08:52:51.943Z,4.47
2022-11-10T08:55:37.399Z,4.40
2022-11-10T08:58:24.710Z,3.92
2022-11-10T09:01:11.751Z,3.72
2022-11-10T09:03:57.609Z,3.90
2022-11-10T09:06:43.070Z,3.50
2022-11-10T09:09:29.138Z,3.60
2022-11-10T09:12:14.732Z,3.50
2022-11-10T09:15:00.706Z,3.28
2022-11-10T09:17:46.159Z,3.00
2022-11-10T09:20:34.531Z,3.03
2022-11-10T09:23:20.818Z,3.63
2022-11-10T09:26:07.546Z,3.88
2022-11-10T09:28:53.131Z,3.60
2022-11-10T09:31:39.022Z,3.13
2022-11-10T09:34:24.655Z,3.23
2022-11-10T09:37:10.414Z,4.40
2022-11-10T09:40:01.109Z,3.50
2022-11-10T09:42:48.353Z,3.70
2022-11-10T09:45:41.480Z,3.53
2022-11-10T09:48:38.967Z,3.30
2022-11-10T09:51:26.961Z,3.73
2022-11-10T09:54:40.329Z,3.77
2022-11-10T09:57:27.053Z,3.03
2022-11-10T10:00:15.703Z,3.10
2022-11-10T10:03:06.227Z,2.70
2022-11-10T10:06:02.748Z,3.40
2022-11-10T10:09:14.323Z,3.45
2022-11-10T10:12:24.938Z,3.50
2022-11-10T10:15:13.632Z,2.53
2022-11-10T10:18:20.336Z,2.15
2022-11-10T10:21:30.768Z,2.42
2022-11-10T10:24:22.261Z,2.70
2022-11-10T10:27:18.993Z,2.95
2022-11-10T10:30:20.742Z,3.55
2022-11-10T10:33:18.684Z,2.80
2022-11-10T10:36:09.756Z,3.60
2022-11-10T10:39:01.331Z,2.88
2022-11-10T10:41:47.832Z,2.50
2022-11-10T10:44:33.168Z,3.90
2022-11-10T10:47:19.462Z,3.53
2022-11-10T10:50:34.170Z,3.13
2022-11-10T10:53:26.023Z,5.40
2022-11-10T10:56:17.439Z,4.65
2022-11-10T10:59:05.994Z,3.70
2022-11-10T11:01:54.706Z,4.20
2022-11-10T11:04:40.488Z,4.57
2022-11-10T11:07:26.104Z,4.30
2022-11-10T11:10:26.931Z,3.47
2022-11-10T11:13:25.822Z,3.70
2022-11-10T11:16:12.673Z,2.60
2022-11-10T11:18:58.972Z,2.53
2022-11-10T11:22:14.448Z,2.33
2022-11-10T11:25:38.936Z,2.28
2022-11-10T11:28:43.595Z,2.50
2022-11-10T11:31:42.872Z,2.60
2022-11-10T11:34:29.205Z,2.58
2022-11-10T11:37:20.678Z,3.20
2022-11-10T11:40:16.913Z,2.60
2022-11-10T11:43:19.351Z,2.60
2022-11-10T11:46:26.684Z,2.83
2022-11-10T11:49:36.631Z,3.13
2022-11-10T11:52:36.418Z,2.35
2022-11-10T11:55:45.348Z,2.20
2022-11-10T11:59:10.065Z,2.95
2022-11-10T12:01:55.210Z,2.58
2022-11-10T12:04:59.421Z,2.60
2022-11-10T12:07:45.580Z,2.78
2022-11-10T12:10:41.889Z,2.10
2022-11-10T12:13:47.525Z,2.33
2022-11-10T12:16:38.668Z,2.55
2022-11-10T12:19:42.201Z,2.92
2022-11-10T12:22:58.097Z,2.30
2022-11-10T12:26:05.371Z,1.90
2022-11-10T12:29:18.281Z,2.80
2022-11-10T12:32:11.912Z,2.10
2022-11-10T12:35:20.305Z,3.17
2022-11-10T12:38:08.114Z,2.55
2022-11-10T12:41:01.558Z,2.92
2022-11-10T12:43:52.452Z,2.83
2022-11-10T12:46:39.063Z,2.75
2022-11-10T12:50:13.376Z,2.70
2022-11-10T12:53:05.860Z,3.00
2022-11-10T12:55:58.388Z,2.03
2022-11-10T12:58:44.221Z,1.70
2022-11-10T13:01:29.768Z,1.90
2022-11-10T13:04:17.660Z,1.80
2022-11-10T13:07:11.840Z,1.90
2022-11-10T13:10:21.801Z,2.25
2022-11-10T13:13:17.648Z,2.20
2022-11-10T13:16:03.666Z,2.22
2022-11-10T13:18:53.502Z,1.90
2022-11-10T13:21:51.075Z,2.47
2022-11-10T13:24:39.654Z,2.83
2022-11-10T13:27:43.925Z,2.70
2022-11-10T13:30:46.533Z,1.90
2022-11-10T13:33:38.138Z,3.07
2022-11-10T13:36:36.764Z,1.93
2022-11-10T13:39:32.950Z,2.03
2022-11-10T13:42:23.916Z,2.37
2022-11-10T13:45:28.569Z,3.30
2022-11-10T13:48:13.774Z,1.90
2022-11-10T13:51:33.747Z,2.10
2022-11-10T13:55:03.920Z,2.13
2022-11-10T13:58:00.934Z,2.13
2022-11-10T14:00:50.671Z,2.27
2022-11-10T14:03:45.374Z,2.47
2022-11-10T14:06:43.380Z,2.47
2022-11-10T14:09:39.596Z,2.20
2022-11-10T14:12:34.067Z,3.00
2022-11-10T14:15:23.748Z,2.73
2022-11-10T14:18:29.098Z,3.80
2022-11-10T14:21:24.879Z,2.47
2022-11-10T14:24:18.708Z,2.23
2022-11-10T14:27:26.166Z,2.00
2022-11-10T14:30:25.646Z,2.50
2022-11-10T14:33:13.968Z,2.77
2022-11-10T14:36:02.119Z,3.23
2022-11-10T14:38:48.530Z,2.70
2022-11-10T14:41:34.377Z,3.20
2022-11-10T14:44:26.556Z,3.20
2022-11-10T14:47:25.362Z,2.73
2022-11-10T14:50:13.825Z,2.57
2022-11-10T14:53:20.854Z,3.10
2022-11-10T14:56:15.953Z,3.50
2022-11-10T14:59:03.481Z,2.73
2022-11-10T15:02:01.661Z,2.63
2022-11-10T15:04:50.327Z,2.30
2022-11-10T15:07:36.709Z,2.50
2022-11-10T15:10:39.387Z,2.43
2022-11-10T15:13:28.601Z,3.70
2022-11-10T15:16:34.167Z,3.83
2022-11-10T15:19:28.434Z,4.20
2022-11-10T15:22:18.983Z,4.03
2022-11-10T15:25:15.205Z,3.53
2022-11-10T15:28:03.137Z,4.00
2022-11-10T15:30:54.618Z,4.53
2022-11-10T15:33:47.188Z,7.17
2022-11-10T15:36:35.744Z,7.30
2022-11-10T15:39:25.144Z,6.17
2022-11-10T15:42:21.359Z,6.67
2022-11-10T15:45:07.103Z,6.30
2022-11-10T15:47:52.967Z,6.67
2022-11-10T15:50:39.157Z,7.13
2022-11-10T15:53:32.612Z,7.27
2022-11-10T15:56:21.806Z,9.27
2022-11-10T15:59:10.479Z,10.60
2022-11-10T16:01:56.501Z,11.50
2022-11-10T16:04:42.438Z,13.07
2022-11-10T16:07:28.023Z,15.30
2022-11-10T16:10:14.173Z,13.00
2022-11-10T16:12:59.766Z,9.40
2022-11-10T16:15:45.665Z,12.23
2022-11-10T16:18:31.312Z,8.90
2022-11-10T16:21:20.655Z,12.10
2022-11-10T16:24:06.085Z,17.93
2022-11-10T16:26:51.928Z,11.67
2022-11-10T16:29:37.907Z,11.60
2022-11-10T16:32:23.743Z,8.27
2022-11-10T16:35:13.918Z,7.07
2022-11-10T16:38:00.045Z,6.37
2022-11-10T16:40:55.084Z,5.20
2022-11-10T16:43:40.974Z,6.00
2022-11-10T16:46:29.649Z,5.77
2022-11-10T16:49:21.410Z,6.60
2022-11-10T16:52:16.865Z,6.23
2022-11-10T16:55:02.464Z,6.30
2022-11-10T16:57:48.883Z,8.97
2022-11-10T17:00:35.746Z,32.27
2022-11-10T17:03:32.002Z,28.33
2022-11-10T17:06:19.759Z,62.47
2022-11-10T17:09:13.930Z,43.03
2022-11-10T17:11:59.551Z,28.97
2022-11-10T17:14:45.170Z,22.33
2022-11-10T17:17:30.923Z,20.97
2022-11-10T17:20:28.577Z,30.70
2022-11-10T17:23:17.497Z,34.30
2022-11-10T17:26:03.223Z,52.87
2022-11-10T17:28:49.267Z,42.47
2022-11-10T17:31:34.837Z,48.23
2022-11-10T17:34:20.485Z,33.17
2022-11-10T17:37:06.153Z,18.20
2022-11-10T17:39:51.984Z,35.03
2022-11-10T17:42:39.126Z,32.77
2022-11-10T17:45:26.905Z,25.07
2022-11-10T17:48:12.866Z,48.83
2022-11-10T17:50:58.624Z,26.77
2022-11-10T17:53:44.118Z,22.07
2022-11-10T17:56:33.259Z,22.87
2022-11-10T17:59:18.964Z,11.90
2022-11-10T18:02:04.433Z,14.00
2022-11-10T18:04:50.031Z,13.00
2022-11-10T18:07:35.716Z,12.30
2022-11-10T18:10:21.298Z,10.40
2022-11-10T18:13:07.028Z,11.13
2022-11-10T18:15:54.407Z,11.50
2022-11-10T18:18:40.689Z,11.93
2022-11-10T18:21:26.165Z,11.50
2022-11-10T18:24:12.234Z,12.23
2022-11-10T18:26:57.374Z,9.80
2022-11-10T18:29:43.539Z,12.77
2022-11-10T18:32:28.854Z,12.57
2022-11-10T18:35:14.927Z,10.97
2022-11-10T18:38:00.562Z,19.07
2022-11-10T18:40:46.274Z,11.80
2022-11-10T18:43:31.770Z,10.07
2022-11-10T18:46:17.457Z,10.33
2022-11-10T18:49:03.195Z,10.80
2022-11-10T18:51:48.682Z,12.90
2022-11-10T18:54:34.131Z,12.53
2022-11-10T18:57:20.054Z,10.53
2022-11-10T19:00:07.073Z,17.00
2022-11-10T19:02:52.774Z,14.27
2022-11-10T19:05:38.686Z,11.03
2022-11-10T19:08:26.522Z,15.57
2022-11-10T19:11:14.979Z,14.10
2022-11-10T19:14:02.076Z,12.40
2022-11-10T19:16:47.968Z,10.97
2022-11-10T19:19:33.673Z,15.43
2022-11-10T19:22:19.176Z,12.57
2022-11-10T19:25:09.211Z,10.50
2022-11-10T19:27:55.730Z,13.37
2022-11-10T19:30:41.715Z,16.20
2022-11-10T19:33:32.700Z,13.30
2022-11-10T19:36:21.361Z,12.10
2022-11-10T19:39:06.805Z,11.17
2022-11-10T19:41:52.880Z,10.30
2022-11-10T19:44:38.332Z,9.57
2022-11-10T19:47:25.196Z,10.37
2022-11-10T19:50:10.758Z,10.20
2022-11-10T19:52:56.238Z,10.10
2022-11-10T19:55:41.838Z,9.73
2022-11-10T19:58:28.041Z,9.33
2022-11-10T20:01:15.415Z,9.53
2022-11-10T20:04:01.691Z,9.17
2022-11-10T20:06:47.188Z,9.97
2022-11-10T20:09:32.888Z,11.13
2022-11-10T20:12:18.034Z,10.43
2022-11-10T20:15:05.484Z,9.87
2022-11-10T20:17:51.639Z,9.30
2022-11-10T20:20:38.827Z,10.97
2022-11-10T20:23:24.482Z,9.27
2022-11-10T20:26:16.766Z,9.60
2022-11-10T20:29:02.043Z,10.30
2022-11-10T20:31:47.448Z,9.17
2022-11-10T20:34:33.126Z,9.93
2022-11-10T20:37:19.225Z,10.27
2022-11-10T20:40:13.991Z,10.73
2022-11-10T20:43:10.128Z,11.27
2022-11-10T20:45:55.665Z,10.47
2022-11-10T20:48:42.601Z,10.37
2022-11-10T20:51:27.980Z,10.83
2022-11-10T20:54:15.118Z,10.73
2022-11-10T20:57:00.831Z,10.57
2022-11-10T20:59:47.461Z,10.67
2022-11-10T21:02:32.940Z,10.23
2022-11-10T21:05:18.493Z,10.10
2022-11-10T21:08:04.019Z,9.70
2022-11-10T21:10:54.356Z,10.63
2022-11-10T21:13:39.612Z,10.83
2022-11-10T21:16:26.003Z,10.80
2022-11-10T21:19:11.693Z,10.03
2022-11-10T21:21:57.635Z,9.80
2022-11-10T21:24:43.147Z,10.60
2022-11-10T21:27:28.696Z,9.90
2022-11-10T21:30:22.660Z,10.43
2022-11-10T21:33:08.495Z,9.50
2022-11-10T21:35:53.632Z,9.90
2022-11-10T21:38:39.512Z,8.50
2022-11-10T21:41:25.667Z,8.83
2022-11-10T21:44:11.357Z,8.40
2022-11-10T21:46:56.987Z,9.20
2022-11-10T21:49:42.989Z,10.03
2022-11-10T21:52:34.784Z,7.60
2022-11-10T21:55:21.364Z,8.33
2022-11-10T21:58:06.874Z,8.40
2022-11-10T22:00:52.573Z,7.43
2022-11-10T22:03:38.641Z,7.97
2022-11-10T22:06:44.292Z,7.60
2022-11-10T22:09:48.421Z,7.10
2022-11-10T22:12:52.667Z,8.17
2022-11-10T22:15:59.102Z,8.43
2022-11-10T22:18:46.633Z,7.53
2022-11-10T22:21:32.290Z,8.40
2022-11-10T22:24:24.052Z,8.60
2022-11-10T22:27:09.163Z,8.00
2022-11-10T22:29:54.827Z,7.60
2022-11-10T22:32:39.907Z,7.13
2022-11-10T22:35:44.046Z,6.33
2022-11-10T22:38:30.719Z,6.53
2022-11-10T22:41:35.490Z,6.70
2022-11-10T22:44:24.832Z,6.67
2022-11-10T22:47:11.073Z,6.47
2022-11-10T22:49:56.596Z,6.67
2022-11-10T22:52:42.169Z,6.07
2022-11-10T22:55:27.714Z,6.70
2022-11-10T22:58:13.140Z,6.43
2022-11-10T23:01:09.973Z,5.90
2022-11-10T23:04:00.797Z,6.37
2022-11-10T23:06:46.213Z,6.10
2022-11-10T23:09:34.741Z,6.33
2022-11-10T23:12:20.344Z,6.27
2022-11-10T23:15:06.698Z,6.00
2022-11-10T23:17:54.233Z,5.47
2022-11-10T23:20:39.711Z,5.77
2022-11-10T23:23:25.986Z,6.00
2022-11-10T23:26:22.787Z,5.60
2022-11-10T23:29:08.352Z,5.33
2022-11-10T23:31:54.196Z,5.97
2022-11-10T23:34:39.678Z,5.87
2022-11-10T23:37:25.237Z,5.93
2022-11-10T23:40:11.373Z,6.50
2022-11-10T23:42:57.173Z,5.90
2022-11-10T23:46:05.262Z,5.67
2022-11-10T23:48:48.586Z,5.20
2022-11-10T23:51:34.240Z,5.57
2022-11-10T23:54:20.055Z,5.73
2022-11-10T23:57:05.815Z,6.07
2022-11-10T23:59:51.817Z,5.40
